sensor_id;sensor_type;location;lat;lon;timestamp;P1;durP1;ratioP1;P2;durP2;ratioP2
826;SDS011;395;48.132;11.608;2022-09-09T00:00:12;1.73;;;1.50;;
826;SDS011;395;48.132;11.608;2022-09-09T00:02:40;1.60;;;1.23;;
826;SDS011;395;48.132;11.608;2022-09-09T00:07:43;1.97;;;1.43;;
826;SDS011;395;48.132;11.608;2022-09-09T00:10:31;2.10;;;1.47;;
826;SDS011;395;48.132;11.608;2022-09-09T00:21:16;2.10;;;1.57;;
826;SDS011;395;48.132;11.608;2022-09-09T00:23:55;1.93;;;1.40;;
826;SDS011;395;48.132;11.608;2022-09-09T00:26:34;3.00;;;1.63;;
826;SDS011;395;48.132;11.608;2022-09-09T00:29:05;2.63;;;2.17;;
826;SDS011;395;48.132;11.608;2022-09-09T00:31:55;2.67;;;1.50;;
826;SDS011;395;48.132;11.608;2022-09-09T00:34:25;2.80;;;1.63;;
826;SDS011;395;48.132;11.608;2022-09-09T00:36:53;1.50;;;1.40;;
826;SDS011;395;48.132;11.608;2022-09-09T00:42:17;2.07;;;1.67;;
826;SDS011;395;48.132;11.608;2022-09-09T00:55:48;1.60;;;1.20;;
826;SDS011;395;48.132;11.608;2022-09-09T00:58:17;1.63;;;1.30;;
826;SDS011;395;48.132;11.608;2022-09-09T01:00:52;2.23;;;1.43;;
826;SDS011;395;48.132;11.608;2022-09-09T01:03:46;2.80;;;1.73;;
826;SDS011;395;48.132;11.608;2022-09-09T01:06:33;2.13;;;1.50;;
826;SDS011;395;48.132;11.608;2022-09-09T01:11:48;2.33;;;1.60;;
826;SDS011;395;48.132;11.608;2022-09-09T01:17:16;3.07;;;1.47;;
826;SDS011;395;48.132;11.608;2022-09-09T01:20:02;1.50;;;1.40;;
826;SDS011;395;48.132;11.608;2022-09-09T01:22:48;1.60;;;1.50;;
826;SDS011;395;48.132;11.608;2022-09-09T01:28:10;1.73;;;1.30;;
826;SDS011;395;48.132;11.608;2022-09-09T01:30:40;1.60;;;1.40;;
826;SDS011;395;48.132;11.608;2022-09-09T01:33:07;3.10;;;1.20;;
826;SDS011;395;48.132;11.608;2022-09-09T01:38:07;1.77;;;1.63;;
826;SDS011;395;48.132;11.608;2022-09-09T01:40:33;1.73;;;1.30;;
826;SDS011;395;48.132;11.608;2022-09-09T01:42:59;1.67;;;1.10;;
826;SDS011;395;48.132;11.608;2022-09-09T01:45:24;2.17;;;1.57;;
826;SDS011;395;48.132;11.608;2022-09-09T01:47:52;2.83;;;1.60;;
826;SDS011;395;48.132;11.608;2022-09-09T01:50:18;3.20;;;1.43;;
826;SDS011;395;48.132;11.608;2022-09-09T01:52:45;1.80;;;1.43;;
826;SDS011;395;48.132;11.608;2022-09-09T01:55:14;1.83;;;1.73;;
826;SDS011;395;48.132;11.608;2022-09-09T01:57:50;1.50;;;1.40;;
826;SDS011;395;48.132;11.608;2022-09-09T02:00:19;1.67;;;1.40;;
826;SDS011;395;48.132;11.608;2022-09-09T02:11:15;1.90;;;1.73;;
826;SDS011;395;48.132;11.608;2022-09-09T02:13:46;2.37;;;1.50;;
826;SDS011;395;48.132;11.608;2022-09-09T02:18:48;1.33;;;1.23;;
826;SDS011;395;48.132;11.608;2022-09-09T02:21:18;1.97;;;1.57;;
826;SDS011;395;48.132;11.608;2022-09-09T02:23:44;3.30;;;1.40;;
826;SDS011;395;48.132;11.608;2022-09-09T02:26:13;2.10;;;1.50;;
826;SDS011;395;48.132;11.608;2022-09-09T02:28:45;2.50;;;1.50;;
826;SDS011;395;48.132;11.608;2022-09-09T02:31:13;2.50;;;1.50;;
826;SDS011;395;48.132;11.608;2022-09-09T02:33:43;2.13;;;1.33;;
826;SDS011;395;48.132;11.608;2022-09-09T02:36:19;1.30;;;1.20;;
826;SDS011;395;48.132;11.608;2022-09-09T02:38:47;2.73;;;1.70;;
826;SDS011;395;48.132;11.608;2022-09-09T02:41:16;1.73;;;1.23;;
826;SDS011;395;48.132;11.608;2022-09-09T02:43:44;2.23;;;1.27;;
826;SDS011;395;48.132;11.608;2022-09-09T02:46:19;1.83;;;1.00;;
826;SDS011;395;48.132;11.608;2022-09-09T02:56:37;1.63;;;1.50;;
826;SDS011;395;48.132;11.608;2022-09-09T02:59:07;1.50;;;1.40;;
826;SDS011;395;48.132;11.608;2022-09-09T03:01:32;1.67;;;1.40;;
826;SDS011;395;48.132;11.608;2022-09-09T03:03:58;1.70;;;1.03;;
826;SDS011;395;48.132;11.608;2022-09-09T03:06:24;1.57;;;1.20;;
826;SDS011;395;48.132;11.608;2022-09-09T03:08:50;2.13;;;1.50;;
826;SDS011;395;48.132;11.608;2022-09-09T03:11:16;1.40;;;1.30;;
826;SDS011;395;48.132;11.608;2022-09-09T03:13:42;1.40;;;1.30;;
826;SDS011;395;48.132;11.608;2022-09-09T03:16:08;2.00;;;1.30;;
826;SDS011;395;48.132;11.608;2022-09-09T03:18:34;1.23;;;1.13;;
826;SDS011;395;48.132;11.608;2022-09-09T03:21:00;1.30;;;1.20;;
826;SDS011;395;48.132;11.608;2022-09-09T03:23:26;1.20;;;1.10;;
826;SDS011;395;48.132;11.608;2022-09-09T03:25:51;1.10;;;1.03;;
826;SDS011;395;48.132;11.608;2022-09-09T03:28:19;1.80;;;1.13;;
826;SDS011;395;48.132;11.608;2022-09-09T03:30:45;1.40;;;1.20;;
826;SDS011;395;48.132;11.608;2022-09-09T03:33:11;1.73;;;1.33;;
826;SDS011;395;48.132;11.608;2022-09-09T03:35:37;2.77;;;1.30;;
826;SDS011;395;48.132;11.608;2022-09-09T03:38:03;1.40;;;1.13;;
826;SDS011;395;48.132;11.608;2022-09-09T03:40:29;1.97;;;1.20;;
826;SDS011;395;48.132;11.608;2022-09-09T03:42:56;1.80;;;1.00;;
826;SDS011;395;48.132;11.608;2022-09-09T03:45:21;1.30;;;1.20;;
826;SDS011;395;48.132;11.608;2022-09-09T03:47:47;3.10;;;1.57;;
826;SDS011;395;48.132;11.608;2022-09-09T03:50:12;1.60;;;1.40;;
826;SDS011;395;48.132;11.608;2022-09-09T03:52:38;1.30;;;1.20;;
826;SDS011;395;48.132;11.608;2022-09-09T03:55:06;1.70;;;1.10;;
826;SDS011;395;48.132;11.608;2022-09-09T03:57:33;1.30;;;1.17;;
826;SDS011;395;48.132;11.608;2022-09-09T04:00:02;1.83;;;1.60;;
826;SDS011;395;48.132;11.608;2022-09-09T04:02:30;4.40;;;1.23;;
826;SDS011;395;48.132;11.608;2022-09-09T04:04:55;3.20;;;1.20;;
826;SDS011;395;48.132;11.608;2022-09-09T04:07:21;1.70;;;1.23;;
826;SDS011;395;48.132;11.608;2022-09-09T04:09:46;1.60;;;1.37;;
826;SDS011;395;48.132;11.608;2022-09-09T04:12:13;1.87;;;1.43;;
826;SDS011;395;48.132;11.608;2022-09-09T04:14:38;1.50;;;1.40;;
826;SDS011;395;48.132;11.608;2022-09-09T04:17:04;3.87;;;1.30;;
826;SDS011;395;48.132;11.608;2022-09-09T04:19:31;1.57;;;1.30;;
826;SDS011;395;48.132;11.608;2022-09-09T04:21:57;4.00;;;1.13;;
826;SDS011;395;48.132;11.608;2022-09-09T04:24:23;1.60;;;1.23;;
826;SDS011;395;48.132;11.608;2022-09-09T04:26:49;1.87;;;1.77;;
826;SDS011;395;48.132;11.608;2022-09-09T04:29:15;1.30;;;1.20;;
826;SDS011;395;48.132;11.608;2022-09-09T04:31:41;2.30;;;1.63;;
826;SDS011;395;48.132;11.608;2022-09-09T04:34:07;2.10;;;1.20;;
826;SDS011;395;48.132;11.608;2022-09-09T04:36:34;1.53;;;1.17;;
826;SDS011;395;48.132;11.608;2022-09-09T04:39:00;1.40;;;1.30;;
826;SDS011;395;48.132;11.608;2022-09-09T04:41:26;2.20;;;1.63;;
826;SDS011;395;48.132;11.608;2022-09-09T04:43:52;1.87;;;1.40;;
826;SDS011;395;48.132;11.608;2022-09-09T04:46:18;1.67;;;1.57;;
826;SDS011;395;48.132;11.608;2022-09-09T04:48:45;2.40;;;1.50;;
826;SDS011;395;48.132;11.608;2022-09-09T04:51:11;2.90;;;1.50;;
826;SDS011;395;48.132;11.608;2022-09-09T04:53:38;1.57;;;1.47;;
826;SDS011;395;48.132;11.608;2022-09-09T04:56:09;1.30;;;1.20;;
826;SDS011;395;48.132;11.608;2022-09-09T04:58:36;1.50;;;1.40;;
826;SDS011;395;48.132;11.608;2022-09-09T05:01:04;1.80;;;1.30;;
826;SDS011;395;48.132;11.608;2022-09-09T05:03:39;1.70;;;1.53;;
826;SDS011;395;48.132;11.608;2022-09-09T05:06:05;1.83;;;1.10;;
826;SDS011;395;48.132;11.608;2022-09-09T05:08:36;1.60;;;1.50;;
826;SDS011;395;48.132;11.608;2022-09-09T05:11:02;2.00;;;1.70;;
826;SDS011;395;48.132;11.608;2022-09-09T05:13:29;2.30;;;1.57;;
826;SDS011;395;48.132;11.608;2022-09-09T05:15:57;1.63;;;1.10;;
826;SDS011;395;48.132;11.608;2022-09-09T05:18:22;1.77;;;1.50;;
826;SDS011;395;48.132;11.608;2022-09-09T05:20:49;2.60;;;1.50;;
826;SDS011;395;48.132;11.608;2022-09-09T05:23:15;1.80;;;1.70;;
826;SDS011;395;48.132;11.608;2022-09-09T05:25:41;1.60;;;1.40;;
826;SDS011;395;48.132;11.608;2022-09-09T05:28:07;3.13;;;1.63;;
826;SDS011;395;48.132;11.608;2022-09-09T05:30:33;3.53;;;1.53;;
826;SDS011;395;48.132;11.608;2022-09-09T05:32:59;2.30;;;1.30;;
826;SDS011;395;48.132;11.608;2022-09-09T05:35:25;2.90;;;1.60;;
826;SDS011;395;48.132;11.608;2022-09-09T05:37:50;1.53;;;1.40;;
826;SDS011;395;48.132;11.608;2022-09-09T05:40:16;2.20;;;1.50;;
826;SDS011;395;48.132;11.608;2022-09-09T05:42:41;2.83;;;1.60;;
826;SDS011;395;48.132;11.608;2022-09-09T05:45:08;2.40;;;1.70;;
826;SDS011;395;48.132;11.608;2022-09-09T05:47:34;1.13;;;1.00;;
826;SDS011;395;48.132;11.608;2022-09-09T05:50:02;1.97;;;1.47;;
826;SDS011;395;48.132;11.608;2022-09-09T05:52:28;2.10;;;1.30;;
826;SDS011;395;48.132;11.608;2022-09-09T05:54:54;2.57;;;1.20;;
826;SDS011;395;48.132;11.608;2022-09-09T05:57:21;2.80;;;1.50;;
826;SDS011;395;48.132;11.608;2022-09-09T05:59:47;2.07;;;1.73;;
826;SDS011;395;48.132;11.608;2022-09-09T06:02:13;1.57;;;1.20;;
826;SDS011;395;48.132;11.608;2022-09-09T06:04:39;2.40;;;2.20;;
826;SDS011;395;48.132;11.608;2022-09-09T06:07:04;1.77;;;1.37;;
826;SDS011;395;48.132;11.608;2022-09-09T06:09:30;1.53;;;1.43;;
826;SDS011;395;48.132;11.608;2022-09-09T06:11:56;1.40;;;1.10;;
826;SDS011;395;48.132;11.608;2022-09-09T06:14:23;1.50;;;1.40;;
826;SDS011;395;48.132;11.608;2022-09-09T06:16:50;2.50;;;1.60;;
826;SDS011;395;48.132;11.608;2022-09-09T06:19:16;1.37;;;1.20;;
826;SDS011;395;48.132;11.608;2022-09-09T06:21:43;3.53;;;1.20;;
826;SDS011;395;48.132;11.608;2022-09-09T06:24:09;2.50;;;1.20;;
826;SDS011;395;48.132;11.608;2022-09-09T06:26:38;2.50;;;1.70;;
826;SDS011;395;48.132;11.608;2022-09-09T06:29:06;2.23;;;1.27;;
826;SDS011;395;48.132;11.608;2022-09-09T06:31:33;1.53;;;1.33;;
826;SDS011;395;48.132;11.608;2022-09-09T06:34:03;1.83;;;1.47;;
826;SDS011;395;48.132;11.608;2022-09-09T06:36:30;2.27;;;1.43;;
826;SDS011;395;48.132;11.608;2022-09-09T06:38:58;2.40;;;1.73;;
826;SDS011;395;48.132;11.608;2022-09-09T06:41:25;3.03;;;1.83;;
826;SDS011;395;48.132;11.608;2022-09-09T06:43:53;1.53;;;1.30;;
826;SDS011;395;48.132;11.608;2022-09-09T06:46:21;1.87;;;1.37;;
826;SDS011;395;48.132;11.608;2022-09-09T06:48:48;2.13;;;1.20;;
826;SDS011;395;48.132;11.608;2022-09-09T06:51:15;2.07;;;1.10;;
826;SDS011;395;48.132;11.608;2022-09-09T06:53:42;1.43;;;1.00;;
826;SDS011;395;48.132;11.608;2022-09-09T06:58:35;2.07;;;1.20;;
826;SDS011;395;48.132;11.608;2022-09-09T07:01:05;1.97;;;1.23;;
826;SDS011;395;48.132;11.608;2022-09-09T07:03:31;1.83;;;1.17;;
826;SDS011;395;48.132;11.608;2022-09-09T07:05:57;2.23;;;1.20;;
826;SDS011;395;48.132;11.608;2022-09-09T07:08:24;2.83;;;1.53;;
826;SDS011;395;48.132;11.608;2022-09-09T07:10:50;1.17;;;1.10;;
826;SDS011;395;48.132;11.608;2022-09-09T07:13:27;2.97;;;1.00;;
826;SDS011;395;48.132;11.608;2022-09-09T07:15:53;3.47;;;1.43;;
826;SDS011;395;48.132;11.608;2022-09-09T07:18:19;3.80;;;0.90;;
826;SDS011;395;48.132;11.608;2022-09-09T07:20:54;5.13;;;1.87;;
826;SDS011;395;48.132;11.608;2022-09-09T07:23:22;3.37;;;1.60;;
826;SDS011;395;48.132;11.608;2022-09-09T07:25:48;1.80;;;1.70;;
826;SDS011;395;48.132;11.608;2022-09-09T07:28:15;2.20;;;1.37;;
826;SDS011;395;48.132;11.608;2022-09-09T07:30:41;2.03;;;1.07;;
826;SDS011;395;48.132;11.608;2022-09-09T07:33:07;1.37;;;1.00;;
826;SDS011;395;48.132;11.608;2022-09-09T07:35:34;2.27;;;1.40;;
826;SDS011;395;48.132;11.608;2022-09-09T07:38:02;1.93;;;1.30;;
826;SDS011;395;48.132;11.608;2022-09-09T07:40:31;3.03;;;1.37;;
826;SDS011;395;48.132;11.608;2022-09-09T07:42:57;2.23;;;1.30;;
826;SDS011;395;48.132;11.608;2022-09-09T07:45:24;1.67;;;1.20;;
826;SDS011;395;48.132;11.608;2022-09-09T07:47:49;1.37;;;1.07;;
826;SDS011;395;48.132;11.608;2022-09-09T07:50:15;3.00;;;1.00;;
826;SDS011;395;48.132;11.608;2022-09-09T07:52:41;1.40;;;0.97;;
826;SDS011;395;48.132;11.608;2022-09-09T07:55:06;2.50;;;1.20;;
826;SDS011;395;48.132;11.608;2022-09-09T07:57:32;2.03;;;1.20;;
826;SDS011;395;48.132;11.608;2022-09-09T07:59:58;2.67;;;1.30;;
826;SDS011;395;48.132;11.608;2022-09-09T08:02:24;2.30;;;1.47;;
826;SDS011;395;48.132;11.608;2022-09-09T08:04:50;1.13;;;1.00;;
826;SDS011;395;48.132;11.608;2022-09-09T08:07:16;2.70;;;1.50;;
826;SDS011;395;48.132;11.608;2022-09-09T08:09:42;2.27;;;0.97;;
826;SDS011;395;48.132;11.608;2022-09-09T08:12:09;1.43;;;1.33;;
826;SDS011;395;48.132;11.608;2022-09-09T08:14:38;1.37;;;1.13;;
826;SDS011;395;48.132;11.608;2022-09-09T08:17:05;2.03;;;1.17;;
826;SDS011;395;48.132;11.608;2022-09-09T08:19:30;3.00;;;1.30;;
826;SDS011;395;48.132;11.608;2022-09-09T08:21:59;2.10;;;1.30;;
826;SDS011;395;48.132;11.608;2022-09-09T08:24:26;1.33;;;1.20;;
826;SDS011;395;48.132;11.608;2022-09-09T08:26:52;2.13;;;1.40;;
826;SDS011;395;48.132;11.608;2022-09-09T08:29:18;1.20;;;0.90;;
826;SDS011;395;48.132;11.608;2022-09-09T08:31:45;2.20;;;1.23;;
826;SDS011;395;48.132;11.608;2022-09-09T08:34:12;1.90;;;1.30;;
826;SDS011;395;48.132;11.608;2022-09-09T08:36:40;1.37;;;1.27;;
826;SDS011;395;48.132;11.608;2022-09-09T08:39:07;1.20;;;1.10;;
826;SDS011;395;48.132;11.608;2022-09-09T08:53:09;3.30;;;1.43;;
826;SDS011;395;48.132;11.608;2022-09-09T08:58:43;2.10;;;1.20;;
826;SDS011;395;48.132;11.608;2022-09-09T09:09:42;3.97;;;1.90;;
826;SDS011;395;48.132;11.608;2022-09-09T09:12:24;4.30;;;1.30;;
826;SDS011;395;48.132;11.608;2022-09-09T09:14:54;2.50;;;1.53;;
826;SDS011;395;48.132;11.608;2022-09-09T09:17:24;2.53;;;1.30;;
826;SDS011;395;48.132;11.608;2022-09-09T09:19:53;2.47;;;1.30;;
826;SDS011;395;48.132;11.608;2022-09-09T09:22:20;2.20;;;1.43;;
826;SDS011;395;48.132;11.608;2022-09-09T09:27:33;2.30;;;1.53;;
826;SDS011;395;48.132;11.608;2022-09-09T09:30:17;4.20;;;1.90;;
826;SDS011;395;48.132;11.608;2022-09-09T09:35:43;2.93;;;1.40;;
826;SDS011;395;48.132;11.608;2022-09-09T09:38:18;3.10;;;1.33;;
826;SDS011;395;48.132;11.608;2022-09-09T09:40:52;1.40;;;1.30;;
826;SDS011;395;48.132;11.608;2022-09-09T09:43:22;1.80;;;1.30;;
826;SDS011;395;48.132;11.608;2022-09-09T09:45:53;1.57;;;1.10;;
826;SDS011;395;48.132;11.608;2022-09-09T09:48:19;2.93;;;1.53;;
826;SDS011;395;48.132;11.608;2022-09-09T09:50:55;1.00;;;0.90;;
826;SDS011;395;48.132;11.608;2022-09-09T09:53:29;1.90;;;1.33;;
826;SDS011;395;48.132;11.608;2022-09-09T09:56:05;1.90;;;1.30;;
826;SDS011;395;48.132;11.608;2022-09-09T10:01:26;3.93;;;1.80;;
826;SDS011;395;48.132;11.608;2022-09-09T10:03:57;1.63;;;1.40;;
826;SDS011;395;48.132;11.608;2022-09-09T10:06:34;1.63;;;1.40;;
826;SDS011;395;48.132;11.608;2022-09-09T10:09:02;1.50;;;1.10;;
826;SDS011;395;48.132;11.608;2022-09-09T10:14:19;1.43;;;1.33;;
826;SDS011;395;48.132;11.608;2022-09-09T10:19:32;3.43;;;1.77;;
826;SDS011;395;48.132;11.608;2022-09-09T10:30:19;3.13;;;1.57;;
826;SDS011;395;48.132;11.608;2022-09-09T10:45:56;1.90;;;1.00;;
826;SDS011;395;48.132;11.608;2022-09-09T10:57:21;1.53;;;1.43;;
826;SDS011;395;48.132;11.608;2022-09-09T11:00:05;3.43;;;1.60;;
826;SDS011;395;48.132;11.608;2022-09-09T11:02:39;1.57;;;1.07;;
826;SDS011;395;48.132;11.608;2022-09-09T11:07:57;2.03;;;1.30;;
826;SDS011;395;48.132;11.608;2022-09-09T11:11:33;3.30;;;1.60;;
826;SDS011;395;48.132;11.608;2022-09-09T11:19:44;2.13;;;1.13;;
826;SDS011;395;48.132;11.608;2022-09-09T11:21:52;1.63;;;1.40;;
826;SDS011;395;48.132;11.608;2022-09-09T11:24:23;1.40;;;1.13;;
826;SDS011;395;48.132;11.608;2022-09-09T11:35:25;0.67;;;0.67;;
826;SDS011;395;48.132;11.608;2022-09-09T11:38:19;1.00;;;0.77;;
826;SDS011;395;48.132;11.608;2022-09-09T11:40:56;1.33;;;0.90;;
826;SDS011;395;48.132;11.608;2022-09-09T11:43:33;1.37;;;0.80;;
826;SDS011;395;48.132;11.608;2022-09-09T11:46:09;1.27;;;1.00;;
826;SDS011;395;48.132;11.608;2022-09-09T11:48:38;1.00;;;0.70;;
826;SDS011;395;48.132;11.608;2022-09-09T11:51:11;0.73;;;0.73;;
826;SDS011;395;48.132;11.608;2022-09-09T11:53:56;1.03;;;0.70;;
826;SDS011;395;48.132;11.608;2022-09-09T11:56:31;3.07;;;0.93;;
826;SDS011;395;48.132;11.608;2022-09-09T12:01:37;1.33;;;0.70;;
826;SDS011;395;48.132;11.608;2022-09-09T12:04:17;0.80;;;0.70;;
826;SDS011;395;48.132;11.608;2022-09-09T12:06:51;1.30;;;0.90;;
826;SDS011;395;48.132;11.608;2022-09-09T12:12:05;2.83;;;0.80;;
826;SDS011;395;48.132;11.608;2022-09-09T12:17:10;1.23;;;0.70;;
826;SDS011;395;48.132;11.608;2022-09-09T12:19:40;1.13;;;0.80;;
826;SDS011;395;48.132;11.608;2022-09-09T12:22:20;0.60;;;0.60;;
826;SDS011;395;48.132;11.608;2022-09-09T12:31:07;0.87;;;0.60;;
826;SDS011;395;48.132;11.608;2022-09-09T12:33:49;0.53;;;0.53;;
826;SDS011;395;48.132;11.608;2022-09-09T12:36:25;0.80;;;0.60;;
826;SDS011;395;48.132;11.608;2022-09-09T12:38:55;0.90;;;0.90;;
826;SDS011;395;48.132;11.608;2022-09-09T12:41:25;0.70;;;0.70;;
826;SDS011;395;48.132;11.608;2022-09-09T12:44:03;2.00;;;1.13;;
826;SDS011;395;48.132;11.608;2022-09-09T12:46:41;1.43;;;1.13;;
826;SDS011;395;48.132;11.608;2022-09-09T12:52:08;0.93;;;0.70;;
826;SDS011;395;48.132;11.608;2022-09-09T12:54:43;2.57;;;0.70;;
826;SDS011;395;48.132;11.608;2022-09-09T12:57:15;0.60;;;0.60;;
826;SDS011;395;48.132;11.608;2022-09-09T12:59:42;0.67;;;0.60;;
826;SDS011;395;48.132;11.608;2022-09-09T13:02:23;1.37;;;0.70;;
826;SDS011;395;48.132;11.608;2022-09-09T13:04:53;1.07;;;0.53;;
826;SDS011;395;48.132;11.608;2022-09-09T13:07:19;2.43;;;1.00;;
826;SDS011;395;48.132;11.608;2022-09-09T13:09:46;0.60;;;0.60;;
826;SDS011;395;48.132;11.608;2022-09-09T13:12:18;1.23;;;0.80;;
826;SDS011;395;48.132;11.608;2022-09-09T13:14:47;1.97;;;1.07;;
826;SDS011;395;48.132;11.608;2022-09-09T13:17:26;1.00;;;0.77;;
826;SDS011;395;48.132;11.608;2022-09-09T13:19:54;1.60;;;0.80;;
826;SDS011;395;48.132;11.608;2022-09-09T13:27:31;2.60;;;0.87;;
826;SDS011;395;48.132;11.608;2022-09-09T13:29:59;2.33;;;0.83;;
826;SDS011;395;48.132;11.608;2022-09-09T13:32:26;2.37;;;0.80;;
826;SDS011;395;48.132;11.608;2022-09-09T13:34:53;1.03;;;0.60;;
826;SDS011;395;48.132;11.608;2022-09-09T13:37:26;0.80;;;0.80;;
826;SDS011;395;48.132;11.608;2022-09-09T13:40:00;1.90;;;0.80;;
826;SDS011;395;48.132;11.608;2022-09-09T13:42:28;0.67;;;0.57;;
826;SDS011;395;48.132;11.608;2022-09-09T13:44:56;0.80;;;0.70;;
826;SDS011;395;48.132;11.608;2022-09-09T13:47:29;0.90;;;0.60;;
826;SDS011;395;48.132;11.608;2022-09-09T13:50:15;1.47;;;0.63;;
826;SDS011;395;48.132;11.608;2022-09-09T13:52:45;1.00;;;0.90;;
826;SDS011;395;48.132;11.608;2022-09-09T13:55:16;1.67;;;1.27;;
826;SDS011;395;48.132;11.608;2022-09-09T14:00:18;1.47;;;0.80;;
826;SDS011;395;48.132;11.608;2022-09-09T14:02:44;1.50;;;0.90;;
826;SDS011;395;48.132;11.608;2022-09-09T14:05:10;1.30;;;0.63;;
826;SDS011;395;48.132;11.608;2022-09-09T14:07:40;1.33;;;0.60;;
826;SDS011;395;48.132;11.608;2022-09-09T14:10:07;0.83;;;0.80;;
826;SDS011;395;48.132;11.608;2022-09-09T14:12:33;0.97;;;0.60;;
826;SDS011;395;48.132;11.608;2022-09-09T14:14:59;1.33;;;0.67;;
826;SDS011;395;48.132;11.608;2022-09-09T14:17:27;1.47;;;0.60;;
826;SDS011;395;48.132;11.608;2022-09-09T14:19:56;0.70;;;0.70;;
826;SDS011;395;48.132;11.608;2022-09-09T14:22:22;0.67;;;0.57;;
826;SDS011;395;48.132;11.608;2022-09-09T14:24:48;1.27;;;0.80;;
826;SDS011;395;48.132;11.608;2022-09-09T14:27:14;1.83;;;0.70;;
826;SDS011;395;48.132;11.608;2022-09-09T14:29:41;1.53;;;0.80;;
826;SDS011;395;48.132;11.608;2022-09-09T14:32:08;1.27;;;0.80;;
826;SDS011;395;48.132;11.608;2022-09-09T14:34:34;1.00;;;0.93;;
826;SDS011;395;48.132;11.608;2022-09-09T14:37:00;1.10;;;0.90;;
826;SDS011;395;48.132;11.608;2022-09-09T14:39:26;2.43;;;0.83;;
826;SDS011;395;48.132;11.608;2022-09-09T14:41:51;1.03;;;0.80;;
826;SDS011;395;48.132;11.608;2022-09-09T14:44:17;1.43;;;0.90;;
826;SDS011;395;48.132;11.608;2022-09-09T14:46:43;1.70;;;0.70;;
826;SDS011;395;48.132;11.608;2022-09-09T14:49:08;0.83;;;0.80;;
826;SDS011;395;48.132;11.608;2022-09-09T14:51:35;0.77;;;0.77;;
826;SDS011;395;48.132;11.608;2022-09-09T14:54:01;2.13;;;0.70;;
826;SDS011;395;48.132;11.608;2022-09-09T14:56:28;1.00;;;0.70;;
826;SDS011;395;48.132;11.608;2022-09-09T14:58:56;3.23;;;1.10;;
826;SDS011;395;48.132;11.608;2022-09-09T15:01:23;1.47;;;0.87;;
826;SDS011;395;48.132;11.608;2022-09-09T15:03:55;1.23;;;1.10;;
826;SDS011;395;48.132;11.608;2022-09-09T15:06:23;2.47;;;1.07;;
826;SDS011;395;48.132;11.608;2022-09-09T15:08:50;1.50;;;0.90;;
826;SDS011;395;48.132;11.608;2022-09-09T15:11:17;1.33;;;1.00;;
826;SDS011;395;48.132;11.608;2022-09-09T15:13:43;0.90;;;0.80;;
826;SDS011;395;48.132;11.608;2022-09-09T15:16:11;1.03;;;0.70;;
826;SDS011;395;48.132;11.608;2022-09-09T15:18:41;0.87;;;0.80;;
826;SDS011;395;48.132;11.608;2022-09-09T15:21:10;1.57;;;0.90;;
826;SDS011;395;48.132;11.608;2022-09-09T15:23:40;2.60;;;1.00;;
826;SDS011;395;48.132;11.608;2022-09-09T15:26:07;1.80;;;1.17;;
826;SDS011;395;48.132;11.608;2022-09-09T15:28:33;1.27;;;0.90;;
826;SDS011;395;48.132;11.608;2022-09-09T15:33:34;2.10;;;1.20;;
826;SDS011;395;48.132;11.608;2022-09-09T15:36:13;1.77;;;1.20;;
826;SDS011;395;48.132;11.608;2022-09-09T15:38:39;2.13;;;1.47;;
826;SDS011;395;48.132;11.608;2022-09-09T15:41:05;2.00;;;1.10;;
826;SDS011;395;48.132;11.608;2022-09-09T15:43:31;1.80;;;1.10;;
826;SDS011;395;48.132;11.608;2022-09-09T15:45:59;2.83;;;1.00;;
826;SDS011;395;48.132;11.608;2022-09-09T15:48:49;1.40;;;1.00;;
826;SDS011;395;48.132;11.608;2022-09-09T15:51:16;0.80;;;0.80;;
826;SDS011;395;48.132;11.608;2022-09-09T15:53:42;2.40;;;1.00;;
826;SDS011;395;48.132;11.608;2022-09-09T15:56:08;1.40;;;0.87;;
826;SDS011;395;48.132;11.608;2022-09-09T15:58:34;1.50;;;1.03;;
826;SDS011;395;48.132;11.608;2022-09-09T16:01:04;3.40;;;1.33;;
826;SDS011;395;48.132;11.608;2022-09-09T16:03:41;1.50;;;1.20;;
826;SDS011;395;48.132;11.608;2022-09-09T16:06:14;1.43;;;1.23;;
826;SDS011;395;48.132;11.608;2022-09-09T16:08:42;1.80;;;1.17;;
826;SDS011;395;48.132;11.608;2022-09-09T16:11:10;2.10;;;1.20;;
826;SDS011;395;48.132;11.608;2022-09-09T16:13:40;2.23;;;1.07;;
826;SDS011;395;48.132;11.608;2022-09-09T16:16:07;2.20;;;1.00;;
826;SDS011;395;48.132;11.608;2022-09-09T16:18:40;1.00;;;0.80;;
826;SDS011;395;48.132;11.608;2022-09-09T16:21:17;2.27;;;0.93;;
826;SDS011;395;48.132;11.608;2022-09-09T16:23:45;1.50;;;1.03;;
826;SDS011;395;48.132;11.608;2022-09-09T16:26:11;2.13;;;0.90;;
826;SDS011;395;48.132;11.608;2022-09-09T16:28:39;2.27;;;0.90;;
826;SDS011;395;48.132;11.608;2022-09-09T16:31:06;3.10;;;1.10;;
826;SDS011;395;48.132;11.608;2022-09-09T16:33:39;1.63;;;1.20;;
826;SDS011;395;48.132;11.608;2022-09-09T16:36:09;1.10;;;0.93;;
826;SDS011;395;48.132;11.608;2022-09-09T16:38:39;2.67;;;1.03;;
826;SDS011;395;48.132;11.608;2022-09-09T16:41:05;1.37;;;0.87;;
826;SDS011;395;48.132;11.608;2022-09-09T16:43:32;1.30;;;0.90;;
826;SDS011;395;48.132;11.608;2022-09-09T16:45:59;1.80;;;0.90;;
826;SDS011;395;48.132;11.608;2022-09-09T16:48:31;2.37;;;1.33;;
826;SDS011;395;48.132;11.608;2022-09-09T16:51:01;1.80;;;1.60;;
826;SDS011;395;48.132;11.608;2022-09-09T16:53:32;1.33;;;1.20;;
826;SDS011;395;48.132;11.608;2022-09-09T16:56:04;1.97;;;1.37;;
826;SDS011;395;48.132;11.608;2022-09-09T16:58:33;1.20;;;1.10;;
826;SDS011;395;48.132;11.608;2022-09-09T17:01:02;2.53;;;1.20;;
826;SDS011;395;48.132;11.608;2022-09-09T17:03:29;1.90;;;1.37;;
826;SDS011;395;48.132;11.608;2022-09-09T17:05:56;2.73;;;1.47;;
826;SDS011;395;48.132;11.608;2022-09-09T17:08:23;3.03;;;1.00;;
826;SDS011;395;48.132;11.608;2022-09-09T17:10:49;2.40;;;1.87;;
826;SDS011;395;48.132;11.608;2022-09-09T17:13:15;1.90;;;1.37;;
826;SDS011;395;48.132;11.608;2022-09-09T17:15:44;1.83;;;1.03;;
826;SDS011;395;48.132;11.608;2022-09-09T17:18:10;1.90;;;1.40;;
826;SDS011;395;48.132;11.608;2022-09-09T17:20:37;1.57;;;1.10;;
826;SDS011;395;48.132;11.608;2022-09-09T17:23:04;1.63;;;0.83;;
826;SDS011;395;48.132;11.608;2022-09-09T17:25:34;1.10;;;1.10;;
826;SDS011;395;48.132;11.608;2022-09-09T17:28:00;1.13;;;1.03;;
826;SDS011;395;48.132;11.608;2022-09-09T17:30:27;1.77;;;1.00;;
826;SDS011;395;48.132;11.608;2022-09-09T17:32:53;1.10;;;0.90;;
826;SDS011;395;48.132;11.608;2022-09-09T17:35:18;1.97;;;1.50;;
826;SDS011;395;48.132;11.608;2022-09-09T17:37:44;1.47;;;1.00;;
826;SDS011;395;48.132;11.608;2022-09-09T17:40:10;1.03;;;0.90;;
826;SDS011;395;48.132;11.608;2022-09-09T17:42:36;1.53;;;1.10;;
826;SDS011;395;48.132;11.608;2022-09-09T17:45:02;1.63;;;1.53;;
826;SDS011;395;48.132;11.608;2022-09-09T17:47:28;2.17;;;1.70;;
826;SDS011;395;48.132;11.608;2022-09-09T17:49:55;1.97;;;1.40;;
826;SDS011;395;48.132;11.608;2022-09-09T17:52:21;2.03;;;1.47;;
826;SDS011;395;48.132;11.608;2022-09-09T17:54:47;1.40;;;1.20;;
826;SDS011;395;48.132;11.608;2022-09-09T17:57:14;2.00;;;1.80;;
826;SDS011;395;48.132;11.608;2022-09-09T17:59:42;1.47;;;1.37;;
826;SDS011;395;48.132;11.608;2022-09-09T18:02:08;2.60;;;1.70;;
826;SDS011;395;48.132;11.608;2022-09-09T18:04:36;1.80;;;1.67;;
826;SDS011;395;48.132;11.608;2022-09-09T18:07:01;2.37;;;1.67;;
826;SDS011;395;48.132;11.608;2022-09-09T18:09:27;1.63;;;1.53;;
826;SDS011;395;48.132;11.608;2022-09-09T18:11:54;3.10;;;1.90;;
826;SDS011;395;48.132;11.608;2022-09-09T18:14:23;2.60;;;1.90;;
826;SDS011;395;48.132;11.608;2022-09-09T18:16:59;2.70;;;1.83;;
826;SDS011;395;48.132;11.608;2022-09-09T18:19:28;4.00;;;1.90;;
826;SDS011;395;48.132;11.608;2022-09-09T18:21:55;2.47;;;1.77;;
826;SDS011;395;48.132;11.608;2022-09-09T18:24:22;2.90;;;1.67;;
826;SDS011;395;48.132;11.608;2022-09-09T18:26:49;2.10;;;1.40;;
826;SDS011;395;48.132;11.608;2022-09-09T18:29:16;1.90;;;1.70;;